createdAt,value
2023-05-19T00:01:13.657Z,98137.94
2023-05-19T00:03:52.537Z,98133.28
2023-05-19T00:06:26.940Z,98134.84
2023-05-19T00:08:58.764Z,98132.09
2023-05-19T00:11:29.676Z,98128.94
2023-05-19T00:13:58.481Z,98133.94
2023-05-19T00:16:34.550Z,98131.97
2023-05-19T00:19:03.453Z,98133.16
2023-05-19T00:21:31.404Z,98132.41
2023-05-19T00:23:58.544Z,98130.09
2023-05-19T00:26:27.109Z,98134.34
2023-05-19T00:28:54.118Z,98121.19
2023-05-19T00:31:20.740Z,98125.47
2023-05-19T00:33:52.116Z,98125.09
2023-05-19T00:36:18.765Z,98124.31
2023-05-19T00:38:45.265Z,98116.97
2023-05-19T00:41:12.140Z,98116.19
2023-05-19T00:43:38.686Z,98118.50
2023-05-19T00:46:05.436Z,98119.25
2023-05-19T00:48:36.803Z,98122.38
2023-05-19T00:51:06.495Z,98122.38
2023-05-19T00:53:37.644Z,98112.25
2023-05-19T00:56:04.499Z,98117.66
2023-05-19T00:58:33.507Z,98112.25
2023-05-19T01:01:04.248Z,98109.53
2023-05-19T01:03:32.861Z,98104.50
2023-05-19T01:06:04.969Z,98109.09
2023-05-19T01:08:38.630Z,98102.16
2023-05-19T01:11:06.929Z,98100.59
2023-05-19T01:13:35.350Z,98094.41
2023-05-19T01:16:12.580Z,98100.53
2023-05-19T01:18:46.905Z,98102.47
2023-05-19T01:21:13.989Z,98096.22
2023-05-19T01:24:12.246Z,98106.25
2023-05-19T01:27:00.134Z,98098.13
2023-05-19T01:29:42.748Z,98098.16
2023-05-19T01:32:10.686Z,98098.88
2023-05-19T01:34:43.023Z,98088.75
2023-05-19T01:37:10.019Z,98086.78
2023-05-19T01:39:37.460Z,98086.78
2023-05-19T01:42:07.798Z,98091.00
2023-05-19T01:44:36.702Z,98090.19
2023-05-19T01:47:07.309Z,98089.38
2023-05-19T01:49:33.960Z,98092.47
2023-05-19T01:52:00.579Z,98088.59
2023-05-19T01:54:27.065Z,98087.81
2023-05-19T01:57:23.401Z,98083.19
2023-05-19T02:00:20.522Z,98093.22
2023-05-19T02:03:12.708Z,98083.13
2023-05-19T02:06:03.336Z,98089.25
2023-05-19T02:09:11.229Z,98083.81
2023-05-19T02:11:42.287Z,98087.34
2023-05-19T02:14:29.757Z,98083.84
2023-05-19T02:16:58.003Z,98089.56
2023-05-19T02:19:27.120Z,98091.00
2023-05-19T02:21:54.067Z,98089.78
2023-05-19T02:24:22.782Z,98086.41
2023-05-19T02:26:50.373Z,98098.41
2023-05-19T02:29:17.248Z,98096.03
2023-05-19T02:31:44.147Z,98094.38
2023-05-19T02:34:10.727Z,98093.06
2023-05-19T02:36:41.028Z,98097.25
2023-05-19T02:39:07.605Z,98090.75
2023-05-19T02:41:38.428Z,98089.94
2023-05-19T02:44:05.766Z,98096.50
2023-05-19T02:46:32.505Z,98093.34
2023-05-19T02:49:00.009Z,98093.25
2023-05-19T02:51:28.930Z,98088.47
2023-05-19T02:53:55.567Z,98085.28
2023-05-19T02:56:22.195Z,98078.25
2023-05-19T02:58:48.847Z,98081.66
2023-05-19T03:01:15.774Z,98080.44
2023-05-19T03:03:44.418Z,98071.91
2023-05-19T03:06:12.638Z,98070.72
2023-05-19T03:08:40.837Z,98073.41
2023-05-19T03:11:08.995Z,98081.16
2023-05-19T03:13:35.716Z,98080.31
2023-05-19T03:16:04.322Z,98081.84
2023-05-19T03:18:33.824Z,98077.19
2023-05-19T03:21:00.994Z,98068.69
2023-05-19T03:23:28.152Z,98070.91
2023-05-19T03:25:56.120Z,98071.59
2023-05-19T03:28:27.376Z,98068.03
2023-05-19T03:30:58.625Z,98065.34
2023-05-19T03:33:25.308Z,98066.06
2023-05-19T03:35:53.096Z,98069.91
2023-05-19T03:38:19.600Z,98069.50
2023-05-19T03:40:46.326Z,98070.66
2023-05-19T03:43:13.277Z,98079.19
2023-05-19T03:45:40.045Z,98077.63
2023-05-19T03:48:06.763Z,98086.94
2023-05-19T03:50:34.131Z,98087.28
2023-05-19T03:53:01.050Z,98086.50
2023-05-19T03:55:30.700Z,98084.59
2023-05-19T03:57:57.383Z,98086.97
2023-05-19T04:00:24.213Z,98084.69
2023-05-19T04:02:51.381Z,98081.63
2023-05-19T04:05:18.075Z,98082.03
2023-05-19T04:07:46.727Z,98081.66
2023-05-19T04:10:13.897Z,98096.38
2023-05-19T04:12:40.734Z,98089.84
2023-05-19T04:15:07.983Z,98091.88
2023-05-19T04:17:34.604Z,98100.44
2023-05-19T04:20:01.472Z,98102.81
2023-05-19T04:22:34.502Z,98098.59
2023-05-19T04:25:01.799Z,98094.38
2023-05-19T04:27:30.009Z,98100.19
2023-05-19T04:29:56.597Z,98099.09
2023-05-19T04:32:23.373Z,98091.03
2023-05-19T04:34:50.222Z,98094.97
2023-05-19T04:37:16.816Z,98096.09
2023-05-19T04:39:45.239Z,98105.38
2023-05-19T04:42:12.068Z,98094.94
2023-05-19T04:44:40.261Z,98091.44
2023-05-19T04:47:10.434Z,98097.66
2023-05-19T04:49:39.934Z,98097.69
2023-05-19T04:52:07.998Z,98104.34
2023-05-19T04:54:35.251Z,98101.72
2023-05-19T04:57:05.862Z,98104.09
2023-05-19T04:59:32.613Z,98099.50
2023-05-19T05:01:59.202Z,98100.03
2023-05-19T05:04:26.033Z,98102.84
2023-05-19T05:06:52.759Z,98109.13
2023-05-19T05:09:20.051Z,98108.88
2023-05-19T05:11:47.033Z,98108.19
2023-05-19T05:14:13.849Z,98111.00
2023-05-19T05:16:40.908Z,98109.53
2023-05-19T05:19:10.100Z,98110.44
2023-05-19T05:21:37.075Z,98109.78
2023-05-19T05:24:06.365Z,98111.47
2023-05-19T05:26:34.532Z,98106.97
2023-05-19T05:29:01.663Z,98117.16
2023-05-19T05:31:28.233Z,98106.41
2023-05-19T05:33:54.788Z,98106.50
2023-05-19T05:36:21.432Z,98108.66
2023-05-19T05:38:48.119Z,98113.09
2023-05-19T05:41:16.983Z,98113.59
2023-05-19T05:43:43.583Z,98116.72
2023-05-19T05:46:10.243Z,98115.19
2023-05-19T05:48:37.182Z,98128.00
2023-05-19T05:51:04.185Z,98120.91
2023-05-19T05:53:36.013Z,98120.84
2023-05-19T05:56:02.759Z,98116.44
2023-05-19T05:58:29.304Z,98111.38
2023-05-19T06:00:58.089Z,98114.44
2023-05-19T06:03:24.782Z,98110.41
2023-05-19T06:05:51.790Z,98111.91
2023-05-19T06:08:18.488Z,98110.38
2023-05-19T06:10:47.235Z,98104.19
2023-05-19T06:13:16.303Z,98104.84
2023-05-19T06:15:42.878Z,98107.63
2023-05-19T06:18:13.044Z,98106.41
2023-05-19T06:20:39.580Z,98100.94
2023-05-19T06:23:06.106Z,98106.19
2023-05-19T06:25:39.269Z,98100.63
2023-05-19T06:28:06.106Z,98114.06
2023-05-19T06:30:33.072Z,98104.31
2023-05-19T06:32:59.870Z,98105.00
2023-05-19T06:35:26.569Z,98096.66
2023-05-19T06:37:56.358Z,98102.38
2023-05-19T06:40:23.254Z,98105.00
2023-05-19T06:42:49.839Z,98101.81
2023-05-19T06:45:16.686Z,98104.13
2023-05-19T06:47:44.544Z,98102.28
2023-05-19T06:50:11.199Z,98101.03
2023-05-19T06:52:41.497Z,98094.31
2023-05-19T06:55:08.303Z,98101.34
2023-05-19T06:57:34.974Z,98095.97
2023-05-19T07:00:01.651Z,98100.53
2023-05-19T07:02:28.379Z,98093.94
2023-05-19T07:04:55.026Z,98095.38
2023-05-19T07:07:21.603Z,98104.50
2023-05-19T07:09:48.281Z,98104.09
2023-05-19T07:12:14.772Z,98107.03
2023-05-19T07:14:41.328Z,98105.50
2023-05-19T07:17:07.860Z,98096.75
2023-05-19T07:19:34.359Z,98099.88
2023-05-19T07:22:01.009Z,98102.72
2023-05-19T07:24:27.668Z,98102.78
2023-05-19T07:26:56.473Z,98098.75
2023-05-19T07:29:23.254Z,98097.03
2023-05-19T07:31:54.257Z,98090.44
2023-05-19T07:34:21.963Z,98095.06
2023-05-19T07:36:48.496Z,98094.94
2023-05-19T07:39:15.056Z,98085.81
2023-05-19T07:41:44.204Z,98080.13
2023-05-19T07:44:10.925Z,98080.72
2023-05-19T07:46:37.965Z,98085.81
2023-05-19T07:49:04.664Z,98078.66
2023-05-19T07:51:31.827Z,98081.22
2023-05-19T07:54:02.305Z,98075.81
2023-05-19T07:56:29.748Z,98075.50
2023-05-19T07:58:56.266Z,98067.56
2023-05-19T08:01:23.085Z,98062.28
2023-05-19T08:03:49.787Z,98055.91
2023-05-19T08:06:16.531Z,98059.19
2023-05-19T08:08:43.159Z,98053.28
2023-05-19T08:11:12.049Z,98050.66
2023-05-19T08:13:38.599Z,98057.94
2023-05-19T08:16:05.533Z,98055.16
2023-05-19T08:21:22.563Z,98063.47
2023-05-19T08:23:52.411Z,98049.72
2023-05-19T08:26:19.137Z,98053.63
2023-05-19T08:28:46.028Z,98054.22
2023-05-19T08:31:12.620Z,98051.00
2023-05-19T08:33:39.297Z,98050.03
2023-05-19T08:36:06.681Z,98040.25
2023-05-19T08:38:33.428Z,98040.59
2023-05-19T08:41:00.150Z,98043.84
2023-05-19T08:43:26.766Z,98037.25
2023-05-19T08:45:54.199Z,98038.50
2023-05-19T08:48:23.129Z,98041.47
2023-05-19T08:51:01.369Z,98040.56
2023-05-19T08:53:36.742Z,98040.19
2023-05-19T08:56:13.325Z,98037.72
2023-05-19T08:58:42.562Z,98040.31
2023-05-19T09:01:10.037Z,98035.38
2023-05-19T09:03:39.263Z,98037.19
2023-05-19T09:06:07.818Z,98037.19
2023-05-19T09:08:35.115Z,98037.91
2023-05-19T09:11:01.690Z,98046.94
2023-05-19T09:13:28.373Z,98039.50
2023-05-19T09:15:57.807Z,98035.63
2023-05-19T09:18:28.391Z,98048.16
2023-05-19T09:21:02.525Z,98037.63
2023-05-19T09:23:33.535Z,98040.50
2023-05-19T09:26:07.425Z,98040.75
2023-05-19T09:28:36.469Z,98031.00
2023-05-19T09:34:00.261Z,98031.84
2023-05-19T09:36:29.653Z,98036.53
2023-05-19T09:38:56.243Z,98023.91
2023-05-19T09:41:23.592Z,98034.13
2023-05-19T09:43:56.606Z,98034.19
2023-05-19T09:46:29.031Z,98021.81
2023-05-19T09:48:59.126Z,98023.97
2023-05-19T09:51:25.825Z,98015.72
2023-05-19T09:53:53.249Z,98019.59
2023-05-19T09:56:23.747Z,98021.91
2023-05-19T09:58:52.518Z,98017.94
2023-05-19T10:01:19.539Z,98013.25
2023-05-19T10:03:46.357Z,98016.31
2023-05-19T10:06:15.617Z,98020.63
2023-05-19T10:08:42.703Z,98014.34
2023-05-19T10:11:11.338Z,98013.16
2023-05-19T10:13:39.116Z,98017.00
2023-05-19T10:16:06.742Z,98022.09
2023-05-19T10:18:33.694Z,98014.78
2023-05-19T10:21:00.755Z,98025.13
2023-05-19T10:23:27.508Z,98013.13
2023-05-19T10:25:56.976Z,98008.97
2023-05-19T10:28:28.127Z,98009.00
2023-05-19T10:30:58.758Z,98012.50
2023-05-19T10:33:42.827Z,97999.50
2023-05-19T10:36:45.881Z,98006.41
2023-05-19T10:39:25.352Z,98000.34
2023-05-19T10:42:20.684Z,98000.91
2023-05-19T10:45:05.837Z,97994.78
2023-05-19T10:47:33.710Z,98001.81
2023-05-19T10:50:06.809Z,97995.06
2023-05-19T10:52:37.457Z,98002.94
2023-05-19T10:55:04.909Z,98001.53
2023-05-19T10:57:34.716Z,97989.00
2023-05-19T11:00:27.586Z,97991.59
2023-05-19T11:02:57.607Z,97990.16
2023-05-19T11:05:30.535Z,98002.09
2023-05-19T11:08:06.229Z,97989.31
2023-05-19T11:10:32.845Z,97983.19
2023-05-19T11:13:00.020Z,97981.09
2023-05-19T11:15:27.839Z,97978.78
2023-05-19T11:17:58.652Z,97978.47
2023-05-19T11:20:27.071Z,97990.06
2023-05-19T11:23:06.927Z,97993.63
2023-05-19T11:25:48.199Z,97988.94
2023-05-19T11:28:26.363Z,97982.34
2023-05-19T11:30:54.997Z,97986.16
2023-05-19T11:33:27.374Z,97977.09
2023-05-19T11:35:58.101Z,97979.13
2023-05-19T11:38:29.661Z,97969.63
2023-05-19T11:40:56.645Z,97976.81
2023-05-19T11:43:26.776Z,97984.75
2023-05-19T11:45:55.053Z,97983.75
2023-05-19T11:48:22.548Z,97979.03
2023-05-19T11:50:49.939Z,97980.47
2023-05-19T11:53:16.983Z,97978.75
2023-05-19T11:55:46.968Z,97977.63
2023-05-19T11:58:14.462Z,97974.00
2023-05-19T12:00:45.966Z,97972.31
2023-05-19T12:03:13.368Z,97969.50
2023-05-19T12:05:45.670Z,97973.19
2023-05-19T12:08:13.082Z,97974.13
2023-05-19T12:10:39.974Z,97970.56
2023-05-19T12:13:09.619Z,97967.63
2023-05-19T12:15:36.862Z,97969.13
2023-05-19T12:18:03.952Z,97968.97
2023-05-19T12:20:32.604Z,97977.13
2023-05-19T12:23:00.573Z,97974.81
2023-05-19T12:25:28.579Z,97965.34
2023-05-19T12:28:00.777Z,97977.75
2023-05-19T12:30:31.590Z,97973.78
2023-05-19T12:32:58.724Z,97966.25
2023-05-19T12:35:36.323Z,97969.69
2023-05-19T12:38:06.920Z,97970.06
2023-05-19T12:40:41.304Z,97971.66
2023-05-19T12:43:09.679Z,97962.31
2023-05-19T12:45:37.389Z,97970.25
2023-05-19T12:48:06.583Z,97958.66
2023-05-19T12:50:34.373Z,97961.13
2023-05-19T12:53:01.496Z,97966.41
2023-05-19T12:55:28.276Z,97962.13
2023-05-19T12:58:00.644Z,97962.13
2023-05-19T13:00:32.543Z,97958.31
2023-05-19T13:03:07.474Z,97961.53
2023-05-19T13:05:37.928Z,97953.75
2023-05-19T13:08:11.649Z,97959.28
2023-05-19T13:10:39.463Z,97956.97
2023-05-19T13:13:08.691Z,97952.63
2023-05-19T13:15:39.432Z,97953.03
2023-05-19T13:18:08.808Z,97946.91
2023-05-19T13:20:37.080Z,97949.63
2023-05-19T13:23:04.929Z,97950.84
2023-05-19T13:25:34.155Z,97948.66
2023-05-19T13:28:03.828Z,97949.50
2023-05-19T13:30:30.762Z,97942.19
2023-05-19T13:32:59.277Z,97950.69
2023-05-19T13:35:26.111Z,97941.75
2023-05-19T13:37:52.675Z,97937.56
2023-05-19T13:40:19.386Z,97940.22
2023-05-19T13:42:46.447Z,97947.69
2023-05-19T13:45:13.959Z,97946.56
2023-05-19T13:47:40.714Z,97943.72
2023-05-19T13:50:07.675Z,97943.66
2023-05-19T13:52:34.288Z,97942.09
2023-05-19T13:55:00.777Z,97935.94
2023-05-19T13:57:27.545Z,97949.31
2023-05-19T14:00:02.656Z,97951.72
2023-05-19T14:02:30.670Z,97944.22
2023-05-19T14:04:57.715Z,97939.97
2023-05-19T14:07:25.604Z,97947.44
2023-05-19T14:09:52.603Z,97948.03
2023-05-19T14:12:20.227Z,97938.75
2023-05-19T14:14:50.196Z,97943.22
2023-05-19T14:17:16.794Z,97946.88
2023-05-19T14:19:43.307Z,97951.66
2023-05-19T14:22:09.947Z,97950.25
2023-05-19T14:24:36.504Z,97943.28
2023-05-19T14:27:05.041Z,97948.34
2023-05-19T14:29:31.638Z,97944.06
2023-05-19T14:31:58.252Z,97940.56
2023-05-19T14:34:24.950Z,97942.06
2023-05-19T14:36:51.655Z,97943.97
2023-05-19T14:39:21.720Z,97933.13
2023-05-19T14:41:51.008Z,97941.41
2023-05-19T14:44:17.723Z,97943.69
2023-05-19T14:46:44.257Z,97938.28
2023-05-19T14:49:12.598Z,97943.03
2023-05-19T14:51:39.113Z,97947.38
2023-05-19T14:54:05.826Z,97944.28
2023-05-19T14:56:32.402Z,97945.44
2023-05-19T14:58:59.022Z,97942.28
2023-05-19T15:01:25.945Z,97938.41
2023-05-19T15:03:52.625Z,97943.16
2023-05-19T15:06:19.282Z,97939.28
2023-05-19T15:08:45.960Z,97935.78
2023-05-19T15:11:12.561Z,97937.78
2023-05-19T15:13:39.371Z,97932.41
2023-05-19T15:16:17.454Z,97939.84
2023-05-19T15:18:51.490Z,97935.97
2023-05-19T15:21:18.165Z,97935.97
2023-05-19T15:23:44.827Z,97940.34
2023-05-19T15:26:11.424Z,97941.50
2023-05-19T15:28:38.019Z,97934.88
2023-05-19T15:31:04.652Z,97936.47
2023-05-19T15:33:31.178Z,97937.34
2023-05-19T15:35:57.674Z,97928.84
2023-05-19T15:38:24.251Z,97933.91
2023-05-19T15:40:51.177Z,97934.34
2023-05-19T15:43:21.803Z,97927.34
2023-05-19T15:45:50.148Z,97936.69
2023-05-19T15:48:16.733Z,97940.97
2023-05-19T15:50:43.322Z,97942.16
2023-05-19T15:53:11.018Z,97942.56
2023-05-19T15:55:39.977Z,97932.41
2023-05-19T15:58:07.698Z,97939.00
2023-05-19T16:00:34.628Z,97937.09
2023-05-19T16:03:01.310Z,97941.34
2023-05-19T16:05:27.963Z,97931.63
2023-05-19T16:07:56.870Z,97926.56
2023-05-19T16:10:23.443Z,97933.63
2023-05-19T16:12:49.991Z,97919.66
2023-05-19T16:15:21.128Z,97929.00
2023-05-19T16:17:47.681Z,97925.19
2023-05-19T16:20:16.349Z,97926.41
2023-05-19T16:22:42.867Z,97929.16
2023-05-19T16:25:09.710Z,97926.06
2023-05-19T16:27:36.293Z,97919.47
2023-05-19T16:30:03.384Z,97919.88
2023-05-19T16:32:33.998Z,97917.19
2023-05-19T16:35:00.716Z,97917.19
2023-05-19T16:37:27.229Z,97924.97
2023-05-19T16:39:53.746Z,97924.97
2023-05-19T16:42:20.212Z,97925.38
2023-05-19T16:44:47.044Z,97925.03
2023-05-19T16:47:15.327Z,97924.59
2023-05-19T16:49:41.973Z,97926.19
2023-05-19T16:52:08.449Z,97924.66
2023-05-19T16:54:35.316Z,97935.94
2023-05-19T16:57:04.223Z,97925.44
2023-05-19T16:59:30.738Z,97932.06
2023-05-19T17:01:57.281Z,97927.44
2023-05-19T17:04:24.150Z,97934.44
2023-05-19T17:06:51.042Z,97928.22
2023-05-19T17:09:18.222Z,97941.06
2023-05-19T17:11:44.757Z,97935.25
2023-05-19T17:14:11.645Z,97944.19
2023-05-19T17:16:38.375Z,97941.88
2023-05-19T17:19:04.916Z,97935.25
2023-05-19T17:21:31.909Z,97937.97
2023-05-19T17:23:58.477Z,97937.97
2023-05-19T17:26:25.288Z,97932.53
2023-05-19T17:28:51.840Z,97932.19
2023-05-19T17:31:18.387Z,97931.03
2023-05-19T17:33:45.124Z,97932.59
2023-05-19T17:36:14.004Z,97930.66
2023-05-19T17:38:42.004Z,97942.72
2023-05-19T17:41:13.985Z,97943.91
2023-05-19T17:43:41.364Z,97933.78
2023-05-19T17:46:08.713Z,97948.19
2023-05-19T17:48:40.597Z,97946.63
2023-05-19T17:51:07.499Z,97944.34
2023-05-19T17:53:34.616Z,97943.94
2023-05-19T17:56:05.220Z,97937.31
2023-05-19T17:58:32.168Z,97939.28
2023-05-19T18:01:01.093Z,97940.84
2023-05-19T18:03:28.153Z,97940.09
2023-05-19T18:05:55.006Z,97951.75
2023-05-19T18:08:21.770Z,97954.88
2023-05-19T18:10:53.110Z,97945.19
2023-05-19T18:13:19.859Z,97949.84
2023-05-19T18:15:46.749Z,97946.34
2023-05-19T18:18:13.326Z,97950.66
2023-05-19T18:20:41.274Z,97953.78
2023-05-19T18:23:07.839Z,97946.38
2023-05-19T18:25:37.554Z,97946.78
2023-05-19T18:28:04.172Z,97950.31
2023-05-19T18:30:30.801Z,97955.38
2023-05-19T18:32:57.577Z,97948.38
2023-05-19T18:35:24.127Z,97952.25
2023-05-19T18:37:58.015Z,97951.09
2023-05-19T18:40:26.450Z,97952.66
2023-05-19T18:42:52.981Z,97956.56
2023-05-19T18:45:19.570Z,97957.75
2023-05-19T18:47:46.748Z,97963.19
2023-05-19T18:50:15.438Z,97959.28
2023-05-19T18:52:41.967Z,97966.66
2023-05-19T18:55:10.838Z,97966.31
2023-05-19T18:57:37.401Z,97958.53
2023-05-19T19:00:04.380Z,97959.72
2023-05-19T19:02:41.877Z,97960.13
2023-05-19T19:05:11.538Z,97960.91
2023-05-19T19:07:43.143Z,97964.78
2023-05-19T19:10:10.991Z,97967.16
2023-05-19T19:12:37.657Z,97973.75
2023-05-19T19:15:09.613Z,97970.25
2023-05-19T19:17:40.541Z,97973.34
2023-05-19T19:20:08.306Z,97964.06
2023-05-19T19:22:35.005Z,97970.28
2023-05-19T19:25:01.585Z,97966.41
2023-05-19T19:27:31.100Z,97977.28
2023-05-19T19:29:58.699Z,97974.19
2023-05-19T19:32:25.816Z,97975.75
2023-05-19T19:34:55.455Z,97974.19
2023-05-19T19:37:21.966Z,97980.38
2023-05-19T19:39:50.239Z,97981.56
2023-05-19T19:42:18.998Z,97980.41
2023-05-19T19:44:45.689Z,97980.81
2023-05-19T19:47:12.480Z,97976.13
2023-05-19T19:49:39.004Z,97974.56
2023-05-19T19:52:05.851Z,97974.94
2023-05-19T19:54:32.732Z,97968.34
2023-05-19T19:56:59.276Z,97973.41
2023-05-19T19:59:26.962Z,97967.19
2023-05-19T20:01:55.856Z,97969.53
2023-05-19T20:04:22.631Z,97978.06
2023-05-19T20:06:49.829Z,97982.72
2023-05-19T20:09:16.627Z,97971.88
2023-05-19T20:11:43.627Z,97975.75
2023-05-19T20:14:10.207Z,97978.47
2023-05-19T20:16:36.902Z,97970.31
2023-05-19T20:19:03.561Z,97977.31
2023-05-19T20:21:30.596Z,97969.53
2023-05-19T20:23:59.269Z,97978.47
2023-05-19T20:26:25.856Z,97969.53
2023-05-19T20:28:52.435Z,97973.81
2023-05-19T20:31:20.757Z,97970.34
2023-05-19T20:33:48.006Z,97972.66
2023-05-19T20:36:14.586Z,97976.16
2023-05-19T20:38:41.220Z,97969.16
2023-05-19T20:41:07.921Z,97976.94
2023-05-19T20:43:34.686Z,97967.22
2023-05-19T20:46:07.448Z,97972.66
2023-05-19T20:48:34.064Z,97965.66
2023-05-19T20:51:00.753Z,97968.00
2023-05-19T20:53:27.565Z,97961.00
2023-05-19T20:55:54.335Z,97954.03
2023-05-19T20:58:21.281Z,97959.06
2023-05-19T21:00:55.342Z,97952.09
2023-05-19T21:03:23.586Z,97951.69
2023-05-19T21:05:50.462Z,97955.56
2023-05-19T21:08:18.853Z,97943.13
2023-05-19T21:10:45.462Z,97947.41
2023-05-19T21:13:12.268Z,97948.56
2023-05-19T21:15:38.813Z,97944.31
2023-05-19T21:18:06.704Z,97938.88
2023-05-19T21:20:33.795Z,97945.88
2023-05-19T21:23:00.624Z,97950.53
2023-05-19T21:25:27.962Z,97931.50
2023-05-19T21:27:56.062Z,97938.50
2023-05-19T21:30:25.309Z,97933.06
2023-05-19T21:32:52.229Z,97933.06
2023-05-19T21:35:18.872Z,97933.84
2023-05-19T21:37:47.256Z,97928.41
2023-05-19T21:40:14.000Z,97917.16
2023-05-19T21:42:40.545Z,97915.19
2023-05-19T21:45:07.603Z,97917.13
2023-05-19T21:47:34.185Z,97916.75
2023-05-19T21:50:00.989Z,97909.00
2023-05-19T21:52:29.389Z,97910.56
2023-05-19T21:54:56.218Z,97895.00
2023-05-19T21:57:24.844Z,97893.09
2023-05-19T21:59:51.408Z,97893.47
2023-05-19T22:02:17.967Z,97884.94
2023-05-19T22:04:44.865Z,97890.34
2023-05-19T22:07:13.232Z,97884.91
2023-05-19T22:09:42.182Z,97885.69
2023-05-19T22:12:08.854Z,97881.44
2023-05-19T22:14:37.674Z,97883.78
2023-05-19T22:17:04.439Z,97879.09
2023-05-19T22:19:31.107Z,97883.38
2023-05-19T22:22:13.853Z,97892.72
2023-05-19T22:24:41.441Z,97888.81
2023-05-19T22:27:08.591Z,97879.91
2023-05-19T22:29:38.679Z,97882.63
2023-05-19T22:32:13.603Z,97884.16
2023-05-19T22:34:40.271Z,97880.69
2023-05-19T22:37:07.188Z,97881.84
2023-05-19T22:39:33.898Z,97874.47
2023-05-19T22:42:00.516Z,97878.72
2023-05-19T22:44:27.244Z,97879.50
2023-05-19T22:46:56.474Z,97869.44
2023-05-19T22:49:22.996Z,97876.03
2023-05-19T22:51:49.933Z,97868.25
2023-05-19T22:54:18.295Z,97870.22
2023-05-19T22:56:46.448Z,97867.88
2023-05-19T22:59:17.792Z,97865.53
2023-05-19T23:01:48.554Z,97860.50
2023-05-19T23:04:15.306Z,97856.25
2023-05-19T23:06:47.211Z,97858.97
2023-05-19T23:09:21.509Z,97857.41
2023-05-19T23:11:48.084Z,97848.84
2023-05-19T23:14:14.664Z,97851.19
2023-05-19T23:16:43.580Z,97851.59
2023-05-19T23:19:10.187Z,97855.84
2023-05-19T23:21:36.751Z,97850.41
2023-05-19T23:24:03.638Z,97855.84
2023-05-19T23:26:30.360Z,97856.63
2023-05-19T23:28:56.914Z,97851.59
2023-05-19T23:31:25.403Z,97843.44
2023-05-19T23:33:51.971Z,97851.97
2023-05-19T23:36:19.244Z,97847.72
2023-05-19T23:38:47.909Z,97848.50
2023-05-19T23:41:14.847Z,97841.09
2023-05-19T23:43:41.349Z,97843.03
2023-05-19T23:46:09.743Z,97840.72
2023-05-19T23:48:36.733Z,97838.00
2023-05-19T23:51:03.709Z,97839.94
2023-05-19T23:53:30.371Z,97836.06
2023-05-19T23:55:58.686Z,97828.31
2023-05-19T23:58:25.442Z,97835.69
